createdAt,value
2018-09-11T00:00:08.453Z,79.65
2018-09-11T00:00:34.583Z,79.84
2018-09-11T00:01:00.738Z,80.04
2018-09-11T00:01:26.877Z,80.04
2018-09-11T00:01:53.013Z,80.32
2018-09-11T00:02:19.140Z,80.22
2018-09-11T00:02:45.298Z,80.22
2018-09-11T00:03:11.429Z,79.94
2018-09-11T00:03:37.559Z,80.22
2018-09-11T00:04:03.694Z,80.22
2018-09-11T00:04:29.825Z,80.22
2018-09-11T00:04:55.963Z,80.22
2018-09-11T00:05:22.119Z,80.22
2018-09-11T00:05:48.256Z,80.04
2018-09-11T00:06:14.420Z,80.42
2018-09-11T00:06:40.562Z,80.42
2018-09-11T00:07:06.691Z,80.04
2018-09-11T00:07:32.831Z,80.13
2018-09-11T00:07:58.997Z,80.32
2018-09-11T00:08:25.134Z,80.22
2018-09-11T00:08:51.264Z,80.13
2018-09-11T00:09:17.399Z,80.22
2018-09-11T00:09:43.539Z,79.55
2018-09-11T00:10:09.669Z,79.55
2018-09-11T00:10:35.798Z,79.65
2018-09-11T00:11:01.931Z,79.94
2018-09-11T00:11:28.065Z,79.94
2018-09-11T00:11:54.223Z,79.46
2018-09-11T00:12:20.403Z,80.13
2018-09-11T00:12:46.539Z,80.04
2018-09-11T00:13:12.698Z,80.61
2018-09-11T00:13:38.833Z,80.51
2018-09-11T00:14:04.964Z,80.61
2018-09-11T00:14:31.120Z,80.51
2018-09-11T00:14:57.250Z,80.8
2018-09-11T00:15:23.416Z,80.9
2018-09-11T00:15:49.563Z,81.19
2018-09-11T00:16:15.700Z,80.9
2018-09-11T00:16:41.836Z,80.9
2018-09-11T00:17:07.976Z,80.99
2018-09-11T00:17:37.135Z,80.9
2018-09-11T00:18:03.267Z,81.09
2018-09-11T00:18:29.406Z,80.99
2018-09-11T00:18:55.532Z,80.71
2018-09-11T00:19:21.661Z,80.8
2018-09-11T00:19:47.798Z,80.61
2018-09-11T00:20:13.928Z,81.38
2018-09-11T00:20:40.091Z,81.28
2018-09-11T00:21:06.223Z,81.48
2018-09-11T00:21:32.357Z,81.48
2018-09-11T00:21:58.485Z,81.15
2018-09-11T00:22:24.631Z,80.86
2018-09-11T00:22:50.780Z,81.82
2018-09-11T00:23:16.922Z,81.63
2018-09-11T00:23:43.052Z,81.92
2018-09-11T00:24:09.192Z,81.82
2018-09-11T00:24:35.326Z,81.72
2018-09-11T00:25:01.462Z,81.72
2018-09-11T00:25:27.587Z,81.92
2018-09-11T00:25:53.746Z,82.78
2018-09-11T00:26:19.881Z,82.01
2018-09-11T00:26:46.035Z,82.68
2018-09-11T00:27:12.166Z,82.4
2018-09-11T00:27:38.306Z,82.4
2018-09-11T00:28:04.435Z,82.59
2018-09-11T00:28:30.573Z,82.59
2018-09-11T00:28:56.713Z,82.49
2018-09-11T00:29:22.888Z,82.68
2018-09-11T00:29:49.020Z,82.87
2018-09-11T00:30:15.184Z,82.49
2018-09-11T00:30:41.309Z,82.49
2018-09-11T00:31:07.451Z,82.78
2018-09-11T00:31:33.592Z,82.3
2018-09-11T00:31:59.737Z,82.49
2018-09-11T00:32:25.875Z,82.87
2018-09-11T00:32:52.007Z,82.59
2018-09-11T00:33:18.139Z,82.78
2018-09-11T00:33:44.310Z,82.68
2018-09-11T00:34:10.444Z,82.78
2018-09-11T00:34:36.579Z,82.49
2018-09-11T00:35:02.718Z,83.36
2018-09-11T00:35:28.845Z,83.16
2018-09-11T00:35:54.986Z,83.07
2018-09-11T00:36:21.121Z,83.16
2018-09-11T00:36:47.253Z,83.07
2018-09-11T00:37:13.394Z,83.74
2018-09-11T00:37:39.536Z,83.54
2018-09-11T00:38:05.664Z,83.45
2018-09-11T00:38:31.797Z,84.22
2018-09-11T00:38:57.938Z,83.93
2018-09-11T00:39:24.096Z,84.22
2018-09-11T00:39:50.259Z,83.84
2018-09-11T00:40:16.415Z,83.93
2018-09-11T00:40:42.548Z,84.12
2018-09-11T00:41:08.686Z,83.54
2018-09-11T00:41:34.819Z,83.54
2018-09-11T00:42:00.980Z,84.12
2018-09-11T00:42:27.120Z,84.12
2018-09-11T00:42:53.253Z,83.54
2018-09-11T00:43:19.387Z,83.54
2018-09-11T00:43:45.539Z,83.54
2018-09-11T00:44:11.684Z,83.07
2018-09-11T00:44:37.837Z,84.03
2018-09-11T00:45:03.969Z,83.64
2018-09-11T00:45:30.111Z,83.36
2018-09-11T00:45:56.241Z,83.54
2018-09-11T00:46:22.371Z,83.64
2018-09-11T00:46:48.524Z,83.93
2018-09-11T00:47:14.661Z,84.03
2018-09-11T00:47:40.800Z,84.51
2018-09-11T00:48:06.933Z,83.84
2018-09-11T00:48:33.073Z,84.12
2018-09-11T00:48:59.204Z,84.41
2018-09-11T00:49:25.369Z,84.22
2018-09-11T00:49:51.520Z,84.22
2018-09-11T00:50:17.657Z,84.18
2018-09-11T00:50:43.799Z,84.51
2018-09-11T00:51:09.929Z,84.41
2018-09-11T00:51:36.062Z,84.22
2018-09-11T00:52:02.304Z,84.18
2018-09-11T00:52:28.337Z,84.89
2018-09-11T00:52:54.473Z,84.7
2018-09-11T00:53:20.629Z,84.56
2018-09-11T00:53:46.773Z,84.56
2018-09-11T00:54:12.919Z,84.8
2018-09-11T00:54:39.072Z,84.6
2018-09-11T00:55:05.207Z,84.22
2018-09-11T00:55:31.337Z,84.22
2018-09-11T00:55:57.480Z,84.03
2018-09-11T00:56:23.622Z,84.12
2018-09-11T00:56:49.744Z,84.22
2018-09-11T00:57:15.880Z,84.03
2018-09-11T00:57:42.048Z,83.93
2018-09-11T00:58:08.179Z,83.84
2018-09-11T00:58:34.316Z,84.41
2018-09-11T00:59:00.472Z,84.51
2018-09-11T00:59:26.615Z,84.7
2018-09-11T00:59:52.753Z,84.75
2018-09-11T01:00:18.913Z,84.89
2018-09-11T01:00:45.040Z,84.89
2018-09-11T01:01:11.197Z,84.8
2018-09-11T01:01:37.378Z,84.75
2018-09-11T01:02:03.516Z,85.18
2018-09-11T01:02:29.676Z,84.8
2018-09-11T01:02:55.806Z,84.8
2018-09-11T01:03:21.947Z,84.6
2018-09-11T01:03:48.079Z,84.6
2018-09-11T01:04:14.220Z,85.18
2018-09-11T01:04:40.375Z,84.95
2018-09-11T01:05:06.528Z,85.04
2018-09-11T01:05:32.682Z,85.14
2018-09-11T01:05:58.845Z,85.81
2018-09-11T01:06:24.992Z,85.42
2018-09-11T01:06:51.127Z,85.42
2018-09-11T01:07:17.281Z,85.62
2018-09-11T01:07:43.421Z,85.14
2018-09-11T01:08:09.601Z,85.04
2018-09-11T01:08:35.736Z,85.62
2018-09-11T01:09:01.870Z,85.42
2018-09-11T01:09:28.008Z,85.42
2018-09-11T01:09:54.163Z,85.24
2018-09-11T01:10:20.465Z,85.71
2018-09-11T01:10:46.484Z,85.33
2018-09-11T01:11:12.619Z,85.71
2018-09-11T01:11:38.753Z,85.52
2018-09-11T01:12:04.891Z,85.14
2018-09-11T01:12:31.029Z,85.52
2018-09-11T01:12:57.156Z,85.71
2018-09-11T01:13:23.309Z,86
2018-09-11T01:13:49.448Z,86.1
2018-09-11T01:14:15.630Z,85.52
2018-09-11T01:14:41.788Z,85.14
2018-09-11T01:15:07.951Z,85.37
2018-09-11T01:15:34.084Z,85.42
2018-09-11T01:16:00.244Z,85.42
2018-09-11T01:16:26.378Z,85.24
2018-09-11T01:16:52.512Z,85.42
2018-09-11T01:17:18.650Z,86.1
2018-09-11T01:17:44.812Z,85.81
2018-09-11T01:18:10.995Z,85.81
2018-09-11T01:18:37.135Z,86.19
2018-09-11T01:19:03.271Z,86
2018-09-11T01:19:29.424Z,86.38
2018-09-11T01:19:55.582Z,86.19
2018-09-11T01:20:21.723Z,86.68
2018-09-11T01:20:47.862Z,86.38
2018-09-11T01:21:14.000Z,86.77
2018-09-11T01:21:40.134Z,86.48
2018-09-11T01:22:06.269Z,86.68
2018-09-11T01:22:32.403Z,86.68
2018-09-11T01:22:58.541Z,86.58
2018-09-11T01:23:24.675Z,86.48
2018-09-11T01:23:50.850Z,86.38
2018-09-11T01:24:17.010Z,86.19
2018-09-11T01:24:43.196Z,86.68
2018-09-11T01:25:09.326Z,86.38
2018-09-11T01:25:35.464Z,86.38
2018-09-11T01:26:01.598Z,86.38
2018-09-11T01:26:27.740Z,86.58
2018-09-11T01:26:53.872Z,86.29
2018-09-11T01:27:20.030Z,86.38
2018-09-11T01:27:46.167Z,86.68
2018-09-11T01:28:12.326Z,86.48
2018-09-11T01:28:38.460Z,86.58
2018-09-11T01:29:04.599Z,86.48
2018-09-11T01:29:30.732Z,86.68
2018-09-11T01:29:56.886Z,86.68
2018-09-11T01:30:23.019Z,86.68
2018-09-11T01:30:49.148Z,86.58
2018-09-11T01:31:15.285Z,86.68
2018-09-11T01:31:41.412Z,86.58
2018-09-11T01:32:07.549Z,86.68
2018-09-11T01:32:33.681Z,86.48
2018-09-11T01:32:59.820Z,86.58
2018-09-11T01:33:25.975Z,87.35
2018-09-11T01:33:52.159Z,87.35
2018-09-11T01:34:18.292Z,86.38
2018-09-11T01:34:44.425Z,86.38
2018-09-11T01:35:10.558Z,87.15
2018-09-11T01:35:36.688Z,86.87
2018-09-11T01:36:02.848Z,86.87
2018-09-11T01:36:29.026Z,86.87
2018-09-11T01:36:55.154Z,86.96
2018-09-11T01:37:21.291Z,87.05
2018-09-11T01:37:47.432Z,87.44
2018-09-11T01:38:13.600Z,87.35
2018-09-11T01:38:39.762Z,87.92
2018-09-11T01:39:05.897Z,88.07
2018-09-11T01:39:32.034Z,87.92
2018-09-11T01:39:58.192Z,87.92
2018-09-11T01:40:24.328Z,87.92
2018-09-11T01:40:50.464Z,88.31
2018-09-11T01:41:16.604Z,88.02
2018-09-11T01:41:42.756Z,88.11
2018-09-11T01:42:08.894Z,87.82
2018-09-11T01:42:35.055Z,87.63
2018-09-11T01:43:01.190Z,87.82
2018-09-11T01:43:27.320Z,87.82
2018-09-11T01:43:53.444Z,88.31
2018-09-11T01:44:19.607Z,87.92
2018-09-11T01:44:45.739Z,87.63
2018-09-11T01:45:11.871Z,88.11
2018-09-11T01:45:38.009Z,87.98
2018-09-11T01:46:04.166Z,88.26
2018-09-11T01:46:30.303Z,88.84
2018-09-11T01:46:56.436Z,88.45
2018-09-11T01:47:22.570Z,88.17
2018-09-11T01:47:48.709Z,88.69
2018-09-11T01:48:14.860Z,88.65
2018-09-11T01:48:41.022Z,88.35
2018-09-11T01:49:07.156Z,88.45
2018-09-11T01:49:33.316Z,89.03
2018-09-11T01:49:59.454Z,88.74
2018-09-11T01:50:25.584Z,88.93
2018-09-11T01:50:51.740Z,88.74
2018-09-11T01:51:17.876Z,88.65
2018-09-11T01:51:44.008Z,88.65
2018-09-11T01:52:10.145Z,88.55
2018-09-11T01:52:36.283Z,88.65
2018-09-11T01:53:02.420Z,89.32
2018-09-11T01:53:28.561Z,89.03
2018-09-11T01:53:54.689Z,89.22
2018-09-11T01:54:20.825Z,89.41
2018-09-11T01:54:46.967Z,88.55
2018-09-11T01:55:13.092Z,88.45
2018-09-11T01:55:39.233Z,89.22
2018-09-11T01:56:05.370Z,88.84
2018-09-11T01:56:31.528Z,88.65
2018-09-11T01:56:57.658Z,88.65
2018-09-11T01:57:23.798Z,88.55
2018-09-11T01:57:49.960Z,89.22
2018-09-11T01:58:16.092Z,89.03
2018-09-11T01:58:42.233Z,89.03
2018-09-11T01:59:08.358Z,89.03
2018-09-11T01:59:34.493Z,88.93
2018-09-11T02:00:00.625Z,89.22
2018-09-11T02:00:26.772Z,89.51
2018-09-11T02:00:52.906Z,88.93
2018-09-11T02:01:19.065Z,89.03
2018-09-11T02:01:45.204Z,88.65
2018-09-11T02:02:11.365Z,88.45
2018-09-11T02:02:37.528Z,89.41
2018-09-11T02:03:03.667Z,89.32
2018-09-11T02:03:29.801Z,88.65
2018-09-11T02:03:55.935Z,88.65
2018-09-11T02:04:22.070Z,88.65
2018-09-11T02:04:48.210Z,88.74
2018-09-11T02:05:14.353Z,88.74
2018-09-11T02:05:40.514Z,89.22
2018-09-11T02:06:06.663Z,89.03
2018-09-11T02:06:32.801Z,89.32
2018-09-11T02:06:58.956Z,89.03
2018-09-11T02:07:25.098Z,89.12
2018-09-11T02:07:51.228Z,89.32
2018-09-11T02:08:17.366Z,89.22
2018-09-11T02:08:43.531Z,89.32
2018-09-11T02:09:09.688Z,89.41
2018-09-11T02:09:35.824Z,89.03
2018-09-11T02:10:01.967Z,89.22
2018-09-11T02:10:28.149Z,89.12
2018-09-11T02:10:54.290Z,89.12
2018-09-11T02:11:20.419Z,89.32
2018-09-11T02:11:46.576Z,88.84
2018-09-11T02:12:12.704Z,88.93
2018-09-11T02:12:38.844Z,89.22
2018-09-11T02:13:04.971Z,89.22
2018-09-11T02:13:31.113Z,88.65
2018-09-11T02:13:57.261Z,89.32
2018-09-11T02:14:23.400Z,89.32
2018-09-11T02:14:49.516Z,89.12
2018-09-11T02:15:15.636Z,89.32
2018-09-11T02:15:41.757Z,89.32
2018-09-11T02:16:07.871Z,89.22
2018-09-11T02:16:33.994Z,89.89
2018-09-11T02:17:00.134Z,89.61
2018-09-11T02:17:26.256Z,89.61
2018-09-11T02:17:52.370Z,89.61
2018-09-11T02:18:18.515Z,90.08
2018-09-11T02:18:44.631Z,90.28
2018-09-11T02:19:10.759Z,89.7
2018-09-11T02:19:36.869Z,90.08
2018-09-11T02:20:02.996Z,90.18
2018-09-11T02:20:29.169Z,89.7
2018-09-11T02:20:55.254Z,89.79
2018-09-11T02:21:21.377Z,89.99
2018-09-11T02:21:47.514Z,89.94
2018-09-11T02:22:13.632Z,90.14
2018-09-11T02:22:39.758Z,90.47
2018-09-11T02:23:05.873Z,90.28
2018-09-11T02:23:31.991Z,90.52
2018-09-11T02:23:58.115Z,90.71
2018-09-11T02:24:24.256Z,90.71
2018-09-11T02:24:50.375Z,90.81
2018-09-11T02:25:16.496Z,90.81
2018-09-11T02:25:44.015Z,90.52
2018-09-11T02:26:10.115Z,90.56
2018-09-11T02:26:36.217Z,90.42
2018-09-11T02:27:02.318Z,90.28
2018-09-11T02:27:28.421Z,89.7
2018-09-11T02:27:54.520Z,89.94
2018-09-11T02:28:20.622Z,90.14
2018-09-11T02:28:46.726Z,89.99
2018-09-11T02:29:12.821Z,90.47
2018-09-11T02:29:38.923Z,90.33
2018-09-11T02:30:05.040Z,90.33
2018-09-11T02:30:31.191Z,90.71
2018-09-11T02:30:57.305Z,90.37
2018-09-11T02:31:23.421Z,90.42
2018-09-11T02:31:49.538Z,90.42
2018-09-11T02:32:15.656Z,90.18
2018-09-11T02:32:41.773Z,90.47
2018-09-11T02:33:07.878Z,90.52
2018-09-11T02:33:34.010Z,89.89
2018-09-11T02:34:00.142Z,90.28
2018-09-11T02:34:26.269Z,89.94
2018-09-11T02:34:52.361Z,90.18
2018-09-11T02:35:18.460Z,90.04
2018-09-11T02:35:44.594Z,89.85
2018-09-11T02:36:10.689Z,90.18
2018-09-11T02:36:36.791Z,89.79
2018-09-11T02:37:02.904Z,90.28
2018-09-11T02:37:29.020Z,89.7
2018-09-11T02:37:55.183Z,90.28
2018-09-11T02:38:21.321Z,90.18
2018-09-11T02:38:47.455Z,89.61
2018-09-11T02:39:13.636Z,89.61
2018-09-11T02:39:39.804Z,89.79
2018-09-11T02:40:05.962Z,89.65
2018-09-11T02:40:32.121Z,89.61
2018-09-11T02:40:58.274Z,89.61
2018-09-11T02:41:24.405Z,89.79
2018-09-11T02:41:50.580Z,89.61
2018-09-11T02:42:16.743Z,89.94
2018-09-11T02:42:42.901Z,89.75
2018-09-11T02:43:09.067Z,90.04
2018-09-11T02:43:35.193Z,90.04
2018-09-11T02:44:01.345Z,89.94
2018-09-11T02:44:27.475Z,90.04
2018-09-11T02:44:53.611Z,90.52
2018-09-11T02:45:19.763Z,90.61
2018-09-11T02:45:45.906Z,90.61
2018-09-11T02:46:12.060Z,90.23
2018-09-11T02:46:38.196Z,89.94
2018-09-11T02:47:04.322Z,90.04
2018-09-11T02:47:30.458Z,89.85
2018-09-11T02:47:56.582Z,90.04
2018-09-11T02:48:22.713Z,89.79
2018-09-11T02:48:48.851Z,89.51
2018-09-11T02:49:15.013Z,89.61
2018-09-11T02:49:41.150Z,88.84
2018-09-11T02:50:07.306Z,89.61
2018-09-11T02:50:33.433Z,89.79
2018-09-11T02:50:59.594Z,89.7
2018-09-11T02:51:25.729Z,89.61
2018-09-11T02:51:51.921Z,89.75
2018-09-11T02:52:18.026Z,89.61
2018-09-11T02:52:44.173Z,90.14
2018-09-11T02:53:10.299Z,89.7
2018-09-11T02:53:36.455Z,90.23
2018-09-11T02:54:02.586Z,89.75
2018-09-11T02:54:28.716Z,90.42
2018-09-11T02:54:54.859Z,89.75
2018-09-11T02:55:21.041Z,90.23
2018-09-11T02:55:47.245Z,90.14
2018-09-11T02:56:13.457Z,89.56
2018-09-11T02:56:39.615Z,89.65
2018-09-11T02:57:05.754Z,89.7
2018-09-11T02:57:31.909Z,89.03
2018-09-11T02:57:58.054Z,89.22
2018-09-11T02:58:24.172Z,88.93
2018-09-11T02:58:50.362Z,89.03
2018-09-11T02:59:16.539Z,89.03
2018-09-11T02:59:42.673Z,89.03
2018-09-11T03:00:08.827Z,88.65
2018-09-11T03:00:34.959Z,88.74
2018-09-11T03:01:01.113Z,88.84
2018-09-11T03:01:27.250Z,88.65
2018-09-11T03:01:53.377Z,88.84
2018-09-11T03:02:19.542Z,88.55
2018-09-11T03:02:45.705Z,89.12
2018-09-11T03:03:11.867Z,88.93
2018-09-11T03:03:37.998Z,89.22
2018-09-11T03:04:04.133Z,89.41
2018-09-11T03:04:30.285Z,89.32
2018-09-11T03:04:56.423Z,89.18
2018-09-11T03:05:22.573Z,88.93
2018-09-11T03:05:48.708Z,88.89
2018-09-11T03:06:14.843Z,89.03
2018-09-11T03:06:40.999Z,89.37
2018-09-11T03:07:07.140Z,88.7
2018-09-11T03:07:33.294Z,89.18
2018-09-11T03:07:59.452Z,89.27
2018-09-11T03:08:25.632Z,88.98
2018-09-11T03:08:51.765Z,89.22
2018-09-11T03:09:17.903Z,88.84
2018-09-11T03:09:44.030Z,89.27
2018-09-11T03:10:10.172Z,89.37
2018-09-11T03:10:36.349Z,89.56
2018-09-11T03:11:02.555Z,89.75
2018-09-11T03:11:28.732Z,89.18
2018-09-11T03:11:54.868Z,89.08
2018-09-11T03:12:21.000Z,89.08
2018-09-11T03:12:47.139Z,89.18
2018-09-11T03:13:13.276Z,89.37
2018-09-11T03:13:39.412Z,89.37
2018-09-11T03:14:05.538Z,89.12
2018-09-11T03:14:31.688Z,89.03
2018-09-11T03:14:57.829Z,89.08
2018-09-11T03:15:24.026Z,88.89
2018-09-11T03:15:50.156Z,89.22
2018-09-11T03:16:16.314Z,89.12
2018-09-11T03:16:42.447Z,89.18
2018-09-11T03:17:08.628Z,89.08
2018-09-11T03:17:34.788Z,89.27
2018-09-11T03:18:00.925Z,88.89
2018-09-11T03:18:27.058Z,88.89
2018-09-11T03:18:53.275Z,89.08
2018-09-11T03:19:19.328Z,89.08
2018-09-11T03:19:45.450Z,88.51
2018-09-11T03:20:11.593Z,89.08
2018-09-11T03:20:37.770Z,89.37
2018-09-11T03:21:03.911Z,88.65
2018-09-11T03:21:30.053Z,88.89
2018-09-11T03:21:56.203Z,88.89
2018-09-11T03:22:22.341Z,89.18
2018-09-11T03:22:48.486Z,89.37
2018-09-11T03:23:14.620Z,89.47
2018-09-11T03:23:40.780Z,89.85
2018-09-11T03:24:06.937Z,89.56
2018-09-11T03:24:33.071Z,88.98
2018-09-11T03:24:59.227Z,89.27
2018-09-11T03:25:25.357Z,89.65
2018-09-11T03:25:51.494Z,89.47
2018-09-11T03:26:17.696Z,89.65
2018-09-11T03:26:43.836Z,89.56
2018-09-11T03:27:10.026Z,89.75
2018-09-11T03:27:36.225Z,89.56
2018-09-11T03:28:02.355Z,89.85
2018-09-11T03:28:28.489Z,89.65
2018-09-11T03:28:54.620Z,89.47
2018-09-11T03:29:20.761Z,89.37
2018-09-11T03:29:46.888Z,88.79
2018-09-11T03:30:13.050Z,88.79
2018-09-11T03:30:39.194Z,88.98
2018-09-11T03:31:05.334Z,89.18
2018-09-11T03:31:31.489Z,89.27
2018-09-11T03:31:57.648Z,89.27
2018-09-11T03:32:23.807Z,89.65
2018-09-11T03:32:49.962Z,89.47
2018-09-11T03:33:16.092Z,89.75
2018-09-11T03:33:42.227Z,89.75
2018-09-11T03:34:08.357Z,89.47
2018-09-11T03:34:34.553Z,89.75
2018-09-11T03:35:00.687Z,89.56
2018-09-11T03:35:26.823Z,89.75
2018-09-11T03:35:52.955Z,89.56
2018-09-11T03:36:19.092Z,89.56
2018-09-11T03:36:45.248Z,89.85
2018-09-11T03:37:11.409Z,90.04
2018-09-11T03:37:37.556Z,89.94
2018-09-11T03:38:03.714Z,89.75
2018-09-11T03:38:29.867Z,90.23
2018-09-11T03:38:56.032Z,90.04
2018-09-11T03:39:22.167Z,90.23
2018-09-11T03:39:48.319Z,90.42
2018-09-11T03:40:14.477Z,89.85
2018-09-11T03:40:40.644Z,89.85
2018-09-11T03:41:06.775Z,90.14
2018-09-11T03:41:32.915Z,89.85
2018-09-11T03:41:59.035Z,89.94
2018-09-11T03:42:25.172Z,90.04
2018-09-11T03:42:51.299Z,90.14
2018-09-11T03:43:17.442Z,90.52
2018-09-11T03:43:43.616Z,90.14
2018-09-11T03:44:09.784Z,90.61
2018-09-11T03:44:35.899Z,91
2018-09-11T03:45:02.024Z,90.9
2018-09-11T03:45:28.161Z,90.14
2018-09-11T03:45:54.298Z,89.75
2018-09-11T03:46:20.444Z,90.14
2018-09-11T03:46:46.591Z,90.52
2018-09-11T03:47:12.721Z,90.52
2018-09-11T03:47:38.851Z,90.04
2018-09-11T03:48:04.984Z,89.85
2018-09-11T03:48:31.141Z,90.14
2018-09-11T03:48:57.284Z,90.04
2018-09-11T03:49:23.444Z,89.75
2018-09-11T03:49:49.594Z,89.85
2018-09-11T03:50:15.727Z,89.65
2018-09-11T03:50:41.883Z,89.75
2018-09-11T03:51:08.018Z,89.85
2018-09-11T03:51:34.176Z,89.94
2018-09-11T03:52:00.303Z,89.85
2018-09-11T03:52:26.438Z,90.04
2018-09-11T03:52:52.572Z,89.75
2018-09-11T03:53:18.732Z,89.65
2018-09-11T03:53:44.860Z,90.14
2018-09-11T03:54:10.999Z,90.04
2018-09-11T03:54:37.198Z,90.14
2018-09-11T03:55:03.358Z,89.94
2018-09-11T03:55:29.494Z,89.75
2018-09-11T03:55:55.627Z,89.37
2018-09-11T03:56:21.796Z,89.65
2018-09-11T03:56:47.918Z,89.56
2018-09-11T03:57:14.081Z,89.56
2018-09-11T03:57:40.215Z,89.65
2018-09-11T03:58:06.348Z,89.56
2018-09-11T03:58:32.508Z,89.85
2018-09-11T03:58:58.646Z,89.65
2018-09-11T03:59:24.838Z,89.65
2018-09-11T03:59:50.952Z,89.56
2018-09-11T04:00:17.103Z,89.85
2018-09-11T04:00:43.266Z,89.85
2018-09-11T04:01:09.419Z,89.85
2018-09-11T04:01:35.599Z,89.94
2018-09-11T04:02:01.728Z,90.09
2018-09-11T04:02:27.915Z,90.04
2018-09-11T04:02:54.041Z,89.75
2018-09-11T04:03:20.177Z,89.65
2018-09-11T04:03:46.325Z,89.56
2018-09-11T04:04:12.472Z,89.65
2018-09-11T04:04:38.619Z,89.56
2018-09-11T04:05:04.793Z,89.56
2018-09-11T04:05:31.000Z,89.85
2018-09-11T04:05:57.087Z,89.65
2018-09-11T04:06:23.240Z,89.37
2018-09-11T04:06:49.404Z,89.37
2018-09-11T04:07:15.551Z,89.08
2018-09-11T04:07:41.682Z,89.27
2018-09-11T04:08:07.816Z,89.18
2018-09-11T04:08:33.982Z,88.6
2018-09-11T04:09:00.140Z,88.98
2018-09-11T04:09:26.298Z,88.98
2018-09-11T04:09:52.449Z,88.6
2018-09-11T04:10:18.581Z,89.08
2018-09-11T04:10:44.744Z,88.79
2018-09-11T04:11:10.876Z,88.79
2018-09-11T04:11:37.010Z,88.6
2018-09-11T04:12:03.182Z,88.89
2018-09-11T04:12:29.316Z,89.37
2018-09-11T04:12:55.445Z,89.27
2018-09-11T04:13:21.583Z,88.51
2018-09-11T04:13:47.740Z,88.79
2018-09-11T04:14:13.891Z,88.7
2018-09-11T04:14:40.029Z,88.41
2018-09-11T04:15:06.160Z,88.31
2018-09-11T04:15:32.325Z,88.12
2018-09-11T04:15:58.469Z,88.02
2018-09-11T04:16:24.632Z,88.12
2018-09-11T04:16:50.773Z,88.6
2018-09-11T04:17:16.911Z,88.6
2018-09-11T04:17:43.048Z,88.6
2018-09-11T04:18:09.197Z,87.64
2018-09-11T04:18:35.332Z,88.02
2018-09-11T04:19:01.466Z,87.74
2018-09-11T04:19:27.607Z,88.12
2018-09-11T04:19:53.741Z,87.84
2018-09-11T04:20:19.898Z,87.64
2018-09-11T04:20:46.059Z,87.93
2018-09-11T04:21:12.238Z,87.64
2018-09-11T04:21:38.399Z,87.93
2018-09-11T04:22:04.572Z,88.51
2018-09-11T04:22:30.720Z,88.41
2018-09-11T04:22:56.854Z,87.98
2018-09-11T04:23:23.009Z,88.51
2018-09-11T04:23:49.141Z,88.02
2018-09-11T04:24:15.299Z,88.12
2018-09-11T04:24:41.451Z,88.6
2018-09-11T04:25:07.589Z,87.84
2018-09-11T04:25:33.749Z,87.93
2018-09-11T04:25:59.872Z,88.22
2018-09-11T04:26:26.009Z,88.6
2018-09-11T04:26:52.131Z,88.51
2018-09-11T04:27:18.264Z,88.41
2018-09-11T04:27:44.422Z,88.37
2018-09-11T04:28:10.557Z,88.65
2018-09-11T04:28:36.696Z,88.46
2018-09-11T04:29:02.820Z,88.27
2018-09-11T04:29:28.995Z,88.46
2018-09-11T04:29:55.130Z,88.46
2018-09-11T04:30:21.265Z,89.04
2018-09-11T04:30:47.415Z,88.84
2018-09-11T04:31:13.550Z,88.94
2018-09-11T04:31:39.689Z,88.94
2018-09-11T04:32:05.838Z,88.75
2018-09-11T04:32:31.982Z,88.94
2018-09-11T04:32:58.127Z,88.37
2018-09-11T04:33:24.259Z,89.13
2018-09-11T04:33:50.393Z,89.13
2018-09-11T04:34:16.563Z,88.75
2018-09-11T04:34:42.743Z,88.94
2018-09-11T04:35:08.880Z,88.56
2018-09-11T04:35:35.038Z,88.56
2018-09-11T04:36:01.188Z,88.84
2018-09-11T04:36:27.379Z,88.65
2018-09-11T04:36:53.448Z,88.75
2018-09-11T04:37:19.579Z,88.17
2018-09-11T04:37:45.745Z,88.37
2018-09-11T04:38:11.875Z,88.17
2018-09-11T04:38:38.047Z,88.17
2018-09-11T04:39:04.182Z,88.08
2018-09-11T04:39:30.312Z,88.37
2018-09-11T04:39:56.440Z,88.65
2018-09-11T04:40:22.577Z,88.46
2018-09-11T04:40:48.713Z,88.84
2018-09-11T04:41:14.864Z,88.94
2018-09-11T04:41:41.002Z,88.75
2018-09-11T04:42:07.136Z,88.94
2018-09-11T04:42:33.267Z,89.13
2018-09-11T04:42:59.465Z,88.94
2018-09-11T04:43:25.549Z,89.23
2018-09-11T04:43:51.706Z,88.75
2018-09-11T04:44:17.869Z,88.84
2018-09-11T04:44:44.040Z,89.23
2018-09-11T04:45:10.181Z,88.75
2018-09-11T04:45:36.309Z,88.84
2018-09-11T04:46:02.469Z,88.75
2018-09-11T04:46:28.604Z,89.13
2018-09-11T04:46:54.809Z,89.04
2018-09-11T04:47:20.937Z,88.56
2018-09-11T04:47:47.072Z,88.94
2018-09-11T04:48:13.220Z,88.75
2018-09-11T04:48:39.346Z,89.04
2018-09-11T04:49:05.482Z,89.13
2018-09-11T04:49:31.617Z,89.32
2018-09-11T04:49:57.769Z,89.23
2018-09-11T04:50:23.924Z,89.42
2018-09-11T04:50:50.084Z,89.09
2018-09-11T04:51:16.253Z,89.32
2018-09-11T04:51:42.406Z,89.32
2018-09-11T04:52:08.566Z,89.32
2018-09-11T04:52:34.727Z,89.13
2018-09-11T04:53:00.903Z,89.04
2018-09-11T04:53:27.055Z,89.04
2018-09-11T04:53:53.191Z,89.13
2018-09-11T04:54:19.403Z,89.13
2018-09-11T04:54:45.578Z,89.23
2018-09-11T04:55:11.726Z,89.04
2018-09-11T04:55:37.855Z,89.13
2018-09-11T04:56:04.092Z,89.04
2018-09-11T04:56:30.182Z,89.51
2018-09-11T04:56:56.317Z,89.61
2018-09-11T04:57:22.467Z,89.61
2018-09-11T04:57:48.624Z,89.57
2018-09-11T04:58:14.781Z,90.05
2018-09-11T04:58:40.913Z,89.86
2018-09-11T04:59:07.050Z,89.47
2018-09-11T04:59:33.179Z,90.05
2018-09-11T04:59:59.317Z,90
2018-09-11T05:00:25.469Z,89.71
2018-09-11T05:00:51.608Z,89.42
2018-09-11T05:01:17.739Z,89.71
2018-09-11T05:01:43.890Z,89.61
2018-09-11T05:02:10.032Z,90.19
2018-09-11T05:02:36.191Z,89.61
2018-09-11T05:03:02.331Z,89.42
2018-09-11T05:03:28.457Z,89.51
2018-09-11T05:03:54.589Z,89.42
2018-09-11T05:04:20.742Z,89.51
2018-09-11T05:04:46.880Z,89.51
2018-09-11T05:05:13.015Z,89.32
2018-09-11T05:05:39.166Z,89.51
2018-09-11T05:06:05.350Z,89.61
2018-09-11T05:06:31.475Z,89.61
2018-09-11T05:06:57.611Z,89.42
2018-09-11T05:07:23.740Z,89.51
2018-09-11T05:07:49.865Z,89.42
2018-09-11T05:08:15.996Z,89.71
2018-09-11T05:08:42.157Z,89.51
2018-09-11T05:09:08.284Z,89.23
2018-09-11T05:09:34.439Z,89.13
2018-09-11T05:10:00.574Z,89.42
2018-09-11T05:10:26.701Z,89.23
2018-09-11T05:10:52.841Z,89.04
2018-09-11T05:11:18.972Z,89.23
2018-09-11T05:11:45.110Z,89.23
2018-09-11T05:12:11.250Z,89.23
2018-09-11T05:12:37.439Z,89.71
2018-09-11T05:13:03.579Z,89.42
2018-09-11T05:13:29.715Z,89.32
2018-09-11T05:13:55.853Z,89.32
2018-09-11T05:14:22.009Z,89.8
2018-09-11T05:14:48.141Z,89.32
2018-09-11T05:15:14.280Z,89.23
2018-09-11T05:15:40.413Z,89.32
2018-09-11T05:16:06.546Z,89.13
2018-09-11T05:16:32.714Z,89.13
2018-09-11T05:16:58.812Z,89.51
2018-09-11T05:17:24.956Z,89.51
2018-09-11T05:17:51.098Z,89.57
2018-09-11T05:18:17.235Z,89.8
2018-09-11T05:18:43.388Z,89.95
2018-09-11T05:19:09.575Z,89.86
2018-09-11T05:19:35.693Z,89.51
2018-09-11T05:20:01.880Z,89.42
2018-09-11T05:20:28.012Z,89.8
2018-09-11T05:20:54.208Z,89.51
2018-09-11T05:21:20.342Z,88.94
2018-09-11T05:21:46.484Z,89.32
2018-09-11T05:22:12.617Z,89.61
2018-09-11T05:22:38.748Z,89.51
2018-09-11T05:23:04.888Z,89.61
2018-09-11T05:23:31.026Z,89.61
2018-09-11T05:23:57.180Z,89.51
2018-09-11T05:24:23.333Z,89.51
2018-09-11T05:24:49.465Z,89.42
2018-09-11T05:25:15.627Z,89.23
2018-09-11T05:25:41.759Z,89.42
2018-09-11T05:26:07.898Z,89.51
2018-09-11T05:26:34.030Z,89.32
2018-09-11T05:27:00.164Z,89.32
2018-09-11T05:27:26.379Z,89.32
2018-09-11T05:27:52.450Z,89.71
2018-09-11T05:28:18.581Z,89.32
2018-09-11T05:28:44.717Z,88.84
2018-09-11T05:29:10.876Z,89.13
2018-09-11T05:29:37.032Z,89.23
2018-09-11T05:30:03.161Z,89.23
2018-09-11T05:30:29.292Z,89.13
2018-09-11T05:30:55.423Z,89.13
2018-09-11T05:31:21.559Z,89.04
2018-09-11T05:31:47.692Z,89.13
2018-09-11T05:32:13.826Z,89.23
2018-09-11T05:32:39.965Z,88.56
2018-09-11T05:33:06.095Z,89.13
2018-09-11T05:33:32.228Z,88.84
2018-09-11T05:33:58.362Z,89.04
2018-09-11T05:34:24.513Z,89.42
2018-09-11T05:34:50.668Z,89.51
2018-09-11T05:35:16.802Z,89.51
2018-09-11T05:35:42.936Z,89.23
2018-09-11T05:36:09.064Z,89.32
2018-09-11T05:36:35.203Z,89.13
2018-09-11T05:37:01.333Z,89.23
2018-09-11T05:37:27.483Z,88.94